Edgewood, Washington
Current Conditions -  °F | °C
As of 1:58 AM on Saturday 20 Dec 2014 (Local Time) from KTCM Reporting Station
Light Rain Light Rain  
Wind Chill: 42°   Ceiling: 3900
Heat Index: 45°   Visibility: 10mi
Dew Point: 44°   Wind: 6mph
Humidity: 95%   Direction: 150°SSE
Pressure: 29.8"   Gusts: NA
Location:  47.2018°N, 122.233°W
Report Text: KTCM 200958Z AUTO 15005KT 10SM -RA FEW022 BKN039 BKN050 07/07 A2980 RMK AO2 CIG 032 RWY34 SLP096 P0001 T00730065
Loading
Personal Weather Stations






























Interactive Weather Map New forecast layout! Learn more

10-Day Weather Forecast

Advertisements
Track Severe Weather on mobile